sensor_id;sensor_type;location;lat;lon;timestamp;P1;durP1;ratioP1;P2;durP2;ratioP2
67564;SDS011;54393;53.556;49.216;2022-08-16T00:00:36;3.62;;;3.05;;
67564;SDS011;54393;53.556;49.216;2022-08-16T00:03:03;4.18;;;3.10;;
67564;SDS011;54393;53.556;49.216;2022-08-16T00:05:30;5.25;;;3.50;;
67564;SDS011;54393;53.556;49.216;2022-08-16T00:07:57;3.70;;;3.40;;
67564;SDS011;54393;53.556;49.216;2022-08-16T00:10:24;3.83;;;2.97;;
67564;SDS011;54393;53.556;49.216;2022-08-16T00:12:52;3.97;;;3.00;;
67564;SDS011;54393;53.556;49.216;2022-08-16T00:15:27;3.80;;;3.40;;
67564;SDS011;54393;53.556;49.216;2022-08-16T00:17:57;3.62;;;3.33;;
67564;SDS011;54393;53.556;49.216;2022-08-16T00:20:25;3.30;;;3.00;;
67564;SDS011;54393;53.556;49.216;2022-08-16T00:22:52;4.03;;;3.20;;
67564;SDS011;54393;53.556;49.216;2022-08-16T00:25:19;3.67;;;3.25;;
67564;SDS011;54393;53.556;49.216;2022-08-16T00:27:47;3.47;;;3.17;;
67564;SDS011;54393;53.556;49.216;2022-08-16T00:30:14;3.85;;;3.33;;
67564;SDS011;54393;53.556;49.216;2022-08-16T00:32:43;4.40;;;3.50;;
67564;SDS011;54393;53.556;49.216;2022-08-16T00:35:12;3.95;;;3.55;;
67564;SDS011;54393;53.556;49.216;2022-08-16T00:37:40;3.70;;;3.33;;
67564;SDS011;54393;53.556;49.216;2022-08-16T00:40:07;4.18;;;2.92;;
67564;SDS011;54393;53.556;49.216;2022-08-16T00:42:34;4.12;;;3.08;;
67564;SDS011;54393;53.556;49.216;2022-08-16T00:45:04;3.20;;;2.90;;
67564;SDS011;54393;53.556;49.216;2022-08-16T00:47:40;3.17;;;2.87;;
67564;SDS011;54393;53.556;49.216;2022-08-16T00:50:10;5.43;;;3.47;;
67564;SDS011;54393;53.556;49.216;2022-08-16T00:52:38;3.53;;;2.80;;
67564;SDS011;54393;53.556;49.216;2022-08-16T00:55:05;3.50;;;3.20;;
67564;SDS011;54393;53.556;49.216;2022-08-16T00:57:32;3.53;;;3.22;;
67564;SDS011;54393;53.556;49.216;2022-08-16T00:59:59;3.90;;;3.45;;
67564;SDS011;54393;53.556;49.216;2022-08-16T01:02:26;3.12;;;2.80;;
67564;SDS011;54393;53.556;49.216;2022-08-16T01:04:52;3.80;;;3.30;;
67564;SDS011;54393;53.556;49.216;2022-08-16T01:07:19;3.03;;;2.83;;
67564;SDS011;54393;53.556;49.216;2022-08-16T01:09:46;2.87;;;2.58;;
67564;SDS011;54393;53.556;49.216;2022-08-16T01:12:12;2.90;;;2.67;;
67564;SDS011;54393;53.556;49.216;2022-08-16T01:14:45;3.42;;;2.70;;
67564;SDS011;54393;53.556;49.216;2022-08-16T01:17:14;2.95;;;2.65;;
67564;SDS011;54393;53.556;49.216;2022-08-16T01:19:44;3.58;;;3.25;;
67564;SDS011;54393;53.556;49.216;2022-08-16T01:25:15;3.53;;;3.00;;
67564;SDS011;54393;53.556;49.216;2022-08-16T01:27:50;3.15;;;2.85;;
67564;SDS011;54393;53.556;49.216;2022-08-16T01:30:19;3.65;;;2.87;;
67564;SDS011;54393;53.556;49.216;2022-08-16T01:32:55;3.58;;;3.00;;
67564;SDS011;54393;53.556;49.216;2022-08-16T01:35:23;2.78;;;2.58;;
67564;SDS011;54393;53.556;49.216;2022-08-16T01:37:54;2.50;;;2.30;;
67564;SDS011;54393;53.556;49.216;2022-08-16T01:40:22;3.17;;;2.92;;
67564;SDS011;54393;53.556;49.216;2022-08-16T01:42:50;4.15;;;2.95;;
67564;SDS011;54393;53.556;49.216;2022-08-16T01:45:18;3.12;;;2.87;;
67564;SDS011;54393;53.556;49.216;2022-08-16T01:47:46;2.55;;;2.33;;
67564;SDS011;54393;53.556;49.216;2022-08-16T01:50:14;2.47;;;2.28;;
67564;SDS011;54393;53.556;49.216;2022-08-16T01:52:41;3.15;;;2.60;;
67564;SDS011;54393;53.556;49.216;2022-08-16T01:55:07;2.65;;;2.45;;
67564;SDS011;54393;53.556;49.216;2022-08-16T01:57:34;3.85;;;2.40;;
67564;SDS011;54393;53.556;49.216;2022-08-16T02:00:02;3.25;;;2.67;;
67564;SDS011;54393;53.556;49.216;2022-08-16T02:02:31;2.92;;;2.72;;
67564;SDS011;54393;53.556;49.216;2022-08-16T02:04:57;2.92;;;2.65;;
67564;SDS011;54393;53.556;49.216;2022-08-16T02:07:24;3.30;;;2.40;;
67564;SDS011;54393;53.556;49.216;2022-08-16T02:09:51;2.67;;;2.47;;
67564;SDS011;54393;53.556;49.216;2022-08-16T02:12:18;2.70;;;2.50;;
67564;SDS011;54393;53.556;49.216;2022-08-16T02:14:45;2.55;;;2.35;;
67564;SDS011;54393;53.556;49.216;2022-08-16T02:17:11;2.83;;;2.25;;
67564;SDS011;54393;53.556;49.216;2022-08-16T02:19:39;2.50;;;2.30;;
67564;SDS011;54393;53.556;49.216;2022-08-16T02:22:06;4.32;;;2.65;;
67564;SDS011;54393;53.556;49.216;2022-08-16T02:24:35;2.33;;;2.12;;
67564;SDS011;54393;53.556;49.216;2022-08-16T02:27:02;3.10;;;2.70;;
67564;SDS011;54393;53.556;49.216;2022-08-16T02:29:29;2.58;;;2.20;;
67564;SDS011;54393;53.556;49.216;2022-08-16T02:31:55;2.30;;;2.03;;
67564;SDS011;54393;53.556;49.216;2022-08-16T02:34:22;2.70;;;2.50;;
67564;SDS011;54393;53.556;49.216;2022-08-16T02:36:48;2.00;;;1.90;;
67564;SDS011;54393;53.556;49.216;2022-08-16T02:39:15;3.22;;;2.17;;
67564;SDS011;54393;53.556;49.216;2022-08-16T02:41:44;3.78;;;2.20;;
67564;SDS011;54393;53.556;49.216;2022-08-16T02:44:12;2.35;;;2.15;;
67564;SDS011;54393;53.556;49.216;2022-08-16T02:46:39;2.80;;;2.17;;
67564;SDS011;54393;53.556;49.216;2022-08-16T02:49:06;2.55;;;2.35;;
67564;SDS011;54393;53.556;49.216;2022-08-16T02:51:34;3.83;;;2.10;;
67564;SDS011;54393;53.556;49.216;2022-08-16T02:54:01;4.07;;;2.40;;
67564;SDS011;54393;53.556;49.216;2022-08-16T02:56:28;2.15;;;2.03;;
67564;SDS011;54393;53.556;49.216;2022-08-16T02:58:54;2.85;;;2.00;;
67564;SDS011;54393;53.556;49.216;2022-08-16T03:01:22;4.97;;;2.50;;
67564;SDS011;54393;53.556;49.216;2022-08-16T03:03:53;2.50;;;2.30;;
67564;SDS011;54393;53.556;49.216;2022-08-16T03:06:20;2.22;;;2.12;;
67564;SDS011;54393;53.556;49.216;2022-08-16T03:08:48;2.85;;;2.25;;
67564;SDS011;54393;53.556;49.216;2022-08-16T03:11:15;3.53;;;2.30;;
67564;SDS011;54393;53.556;49.216;2022-08-16T03:13:43;3.03;;;2.55;;
67564;SDS011;54393;53.556;49.216;2022-08-16T03:16:10;6.25;;;2.75;;
67564;SDS011;54393;53.556;49.216;2022-08-16T03:18:37;3.37;;;2.65;;
67564;SDS011;54393;53.556;49.216;2022-08-16T03:21:04;2.95;;;2.67;;
67564;SDS011;54393;53.556;49.216;2022-08-16T03:23:31;2.90;;;2.35;;
67564;SDS011;54393;53.556;49.216;2022-08-16T03:25:58;3.35;;;2.97;;
67564;SDS011;54393;53.556;49.216;2022-08-16T03:28:24;3.72;;;2.53;;
67564;SDS011;54393;53.556;49.216;2022-08-16T03:30:51;5.72;;;3.15;;
67564;SDS011;54393;53.556;49.216;2022-08-16T03:33:17;4.78;;;3.35;;
67564;SDS011;54393;53.556;49.216;2022-08-16T03:35:44;4.93;;;3.60;;
67564;SDS011;54393;53.556;49.216;2022-08-16T03:38:12;4.32;;;3.60;;
67564;SDS011;54393;53.556;49.216;2022-08-16T03:40:39;5.10;;;3.97;;
67564;SDS011;54393;53.556;49.216;2022-08-16T03:43:09;4.95;;;3.58;;
67564;SDS011;54393;53.556;49.216;2022-08-16T03:45:37;7.65;;;4.05;;
67564;SDS011;54393;53.556;49.216;2022-08-16T03:48:04;8.82;;;4.35;;
67564;SDS011;54393;53.556;49.216;2022-08-16T03:50:31;8.65;;;4.78;;
67564;SDS011;54393;53.556;49.216;2022-08-16T03:52:59;8.95;;;4.95;;
67564;SDS011;54393;53.556;49.216;2022-08-16T03:55:28;7.97;;;4.93;;
67564;SDS011;54393;53.556;49.216;2022-08-16T03:57:54;11.18;;;5.50;;
67564;SDS011;54393;53.556;49.216;2022-08-16T04:00:22;9.10;;;5.80;;
67564;SDS011;54393;53.556;49.216;2022-08-16T04:02:53;9.82;;;5.82;;
67564;SDS011;54393;53.556;49.216;2022-08-16T04:05:20;8.30;;;5.68;;
67564;SDS011;54393;53.556;49.216;2022-08-16T04:07:47;7.15;;;5.47;;
67564;SDS011;54393;53.556;49.216;2022-08-16T04:10:14;9.48;;;6.07;;
67564;SDS011;54393;53.556;49.216;2022-08-16T04:12:41;9.63;;;5.75;;
67564;SDS011;54393;53.556;49.216;2022-08-16T04:15:09;11.55;;;6.90;;
67564;SDS011;54393;53.556;49.216;2022-08-16T04:17:39;11.32;;;6.45;;
67564;SDS011;54393;53.556;49.216;2022-08-16T04:20:06;12.07;;;6.87;;
67564;SDS011;54393;53.556;49.216;2022-08-16T04:22:34;11.57;;;6.43;;
67564;SDS011;54393;53.556;49.216;2022-08-16T04:25:03;11.05;;;6.35;;
67564;SDS011;54393;53.556;49.216;2022-08-16T04:27:30;10.75;;;7.05;;
67564;SDS011;54393;53.556;49.216;2022-08-16T04:29:56;16.62;;;7.80;;
67564;SDS011;54393;53.556;49.216;2022-08-16T04:32:23;13.70;;;8.07;;
67564;SDS011;54393;53.556;49.216;2022-08-16T04:34:49;16.20;;;8.70;;
67564;SDS011;54393;53.556;49.216;2022-08-16T04:37:16;15.02;;;7.85;;
67564;SDS011;54393;53.556;49.216;2022-08-16T04:39:42;14.00;;;7.97;;
67564;SDS011;54393;53.556;49.216;2022-08-16T04:42:09;17.40;;;8.77;;
67564;SDS011;54393;53.556;49.216;2022-08-16T04:44:36;15.75;;;8.30;;
67564;SDS011;54393;53.556;49.216;2022-08-16T04:47:02;16.35;;;8.35;;
67564;SDS011;54393;53.556;49.216;2022-08-16T04:49:29;18.42;;;9.35;;
67564;SDS011;54393;53.556;49.216;2022-08-16T04:51:56;18.40;;;8.38;;
67564;SDS011;54393;53.556;49.216;2022-08-16T04:54:22;16.02;;;8.10;;
67564;SDS011;54393;53.556;49.216;2022-08-16T04:56:49;16.60;;;8.38;;
67564;SDS011;54393;53.556;49.216;2022-08-16T04:59:15;14.90;;;8.90;;
67564;SDS011;54393;53.556;49.216;2022-08-16T05:01:42;14.57;;;9.18;;
67564;SDS011;54393;53.556;49.216;2022-08-16T05:04:09;18.55;;;8.57;;
67564;SDS011;54393;53.556;49.216;2022-08-16T05:06:35;15.43;;;7.80;;
67564;SDS011;54393;53.556;49.216;2022-08-16T05:09:02;17.60;;;8.93;;
67564;SDS011;54393;53.556;49.216;2022-08-16T05:11:29;15.32;;;8.32;;
67564;SDS011;54393;53.556;49.216;2022-08-16T05:13:55;18.67;;;8.75;;
67564;SDS011;54393;53.556;49.216;2022-08-16T05:16:25;14.73;;;8.38;;
67564;SDS011;54393;53.556;49.216;2022-08-16T05:18:54;16.70;;;8.85;;
67564;SDS011;54393;53.556;49.216;2022-08-16T05:21:22;16.73;;;8.10;;
67564;SDS011;54393;53.556;49.216;2022-08-16T05:23:49;14.32;;;8.88;;
67564;SDS011;54393;53.556;49.216;2022-08-16T05:26:17;13.05;;;8.05;;
67564;SDS011;54393;53.556;49.216;2022-08-16T05:28:43;15.45;;;8.88;;
67564;SDS011;54393;53.556;49.216;2022-08-16T05:31:10;17.60;;;9.13;;
67564;SDS011;54393;53.556;49.216;2022-08-16T05:33:36;17.00;;;8.43;;
67564;SDS011;54393;53.556;49.216;2022-08-16T05:36:03;19.17;;;8.65;;
67564;SDS011;54393;53.556;49.216;2022-08-16T05:38:30;13.70;;;8.10;;
67564;SDS011;54393;53.556;49.216;2022-08-16T05:40:57;12.05;;;7.70;;
67564;SDS011;54393;53.556;49.216;2022-08-16T05:43:24;13.68;;;7.70;;
67564;SDS011;54393;53.556;49.216;2022-08-16T05:45:50;14.75;;;8.10;;
67564;SDS011;54393;53.556;49.216;2022-08-16T05:48:17;13.23;;;7.60;;
67564;SDS011;54393;53.556;49.216;2022-08-16T05:50:43;15.35;;;7.72;;
67564;SDS011;54393;53.556;49.216;2022-08-16T05:53:10;14.95;;;7.65;;
67564;SDS011;54393;53.556;49.216;2022-08-16T05:55:36;13.15;;;8.02;;
67564;SDS011;54393;53.556;49.216;2022-08-16T05:58:03;13.68;;;7.53;;
67564;SDS011;54393;53.556;49.216;2022-08-16T06:00:29;14.45;;;7.93;;
67564;SDS011;54393;53.556;49.216;2022-08-16T06:02:56;15.25;;;7.62;;
67564;SDS011;54393;53.556;49.216;2022-08-16T06:05:23;13.40;;;8.35;;
67564;SDS011;54393;53.556;49.216;2022-08-16T06:07:50;17.73;;;7.03;;
67564;SDS011;54393;53.556;49.216;2022-08-16T06:10:17;15.93;;;8.30;;
67564;SDS011;54393;53.556;49.216;2022-08-16T06:12:44;11.05;;;6.82;;
67564;SDS011;54393;53.556;49.216;2022-08-16T06:15:15;12.95;;;7.47;;
67564;SDS011;54393;53.556;49.216;2022-08-16T06:17:42;10.93;;;6.50;;
67564;SDS011;54393;53.556;49.216;2022-08-16T06:20:13;13.52;;;7.57;;
67564;SDS011;54393;53.556;49.216;2022-08-16T06:22:42;15.20;;;7.12;;
67564;SDS011;54393;53.556;49.216;2022-08-16T06:25:10;11.55;;;7.50;;
67564;SDS011;54393;53.556;49.216;2022-08-16T06:27:37;8.95;;;5.90;;
67564;SDS011;54393;53.556;49.216;2022-08-16T06:30:05;11.15;;;6.75;;
67564;SDS011;54393;53.556;49.216;2022-08-16T06:32:32;11.45;;;6.57;;
67564;SDS011;54393;53.556;49.216;2022-08-16T06:34:59;11.82;;;6.55;;
67564;SDS011;54393;53.556;49.216;2022-08-16T06:37:25;9.32;;;6.35;;
67564;SDS011;54393;53.556;49.216;2022-08-16T06:39:52;14.73;;;6.43;;
67564;SDS011;54393;53.556;49.216;2022-08-16T06:42:18;7.47;;;5.53;;
67564;SDS011;54393;53.556;49.216;2022-08-16T06:44:45;11.52;;;5.82;;
67564;SDS011;54393;53.556;49.216;2022-08-16T06:47:13;11.75;;;6.47;;
67564;SDS011;54393;53.556;49.216;2022-08-16T06:49:39;6.57;;;5.40;;
67564;SDS011;54393;53.556;49.216;2022-08-16T06:52:06;9.18;;;5.57;;
67564;SDS011;54393;53.556;49.216;2022-08-16T06:54:33;6.45;;;5.07;;
67564;SDS011;54393;53.556;49.216;2022-08-16T06:57:00;7.97;;;5.57;;
67564;SDS011;54393;53.556;49.216;2022-08-16T06:59:27;9.10;;;5.15;;
67564;SDS011;54393;53.556;49.216;2022-08-16T07:01:53;9.32;;;4.72;;
67564;SDS011;54393;53.556;49.216;2022-08-16T07:04:20;8.73;;;5.70;;
67564;SDS011;54393;53.556;49.216;2022-08-16T07:06:46;10.20;;;5.32;;
67564;SDS011;54393;53.556;49.216;2022-08-16T07:09:13;8.18;;;4.80;;
67564;SDS011;54393;53.556;49.216;2022-08-16T07:11:40;7.65;;;5.18;;
67564;SDS011;54393;53.556;49.216;2022-08-16T07:14:07;5.22;;;4.22;;
67564;SDS011;54393;53.556;49.216;2022-08-16T07:16:33;7.95;;;4.95;;
67564;SDS011;54393;53.556;49.216;2022-08-16T07:19:00;6.47;;;5.15;;
67564;SDS011;54393;53.556;49.216;2022-08-16T07:21:27;6.55;;;4.43;;
67564;SDS011;54393;53.556;49.216;2022-08-16T07:23:53;6.22;;;5.00;;
67564;SDS011;54393;53.556;49.216;2022-08-16T07:26:21;5.85;;;4.72;;
67564;SDS011;54393;53.556;49.216;2022-08-16T07:28:49;6.47;;;4.57;;
67564;SDS011;54393;53.556;49.216;2022-08-16T07:31:16;6.37;;;4.60;;
67564;SDS011;54393;53.556;49.216;2022-08-16T07:33:42;7.05;;;4.78;;
67564;SDS011;54393;53.556;49.216;2022-08-16T07:36:10;8.02;;;4.35;;
67564;SDS011;54393;53.556;49.216;2022-08-16T07:38:37;6.53;;;4.80;;
67564;SDS011;54393;53.556;49.216;2022-08-16T07:41:04;7.47;;;4.72;;
67564;SDS011;54393;53.556;49.216;2022-08-16T07:43:31;7.45;;;4.68;;
67564;SDS011;54393;53.556;49.216;2022-08-16T07:45:58;4.80;;;4.07;;
67564;SDS011;54393;53.556;49.216;2022-08-16T07:48:25;10.75;;;5.00;;
67564;SDS011;54393;53.556;49.216;2022-08-16T07:50:52;5.62;;;4.30;;
67564;SDS011;54393;53.556;49.216;2022-08-16T07:53:18;6.03;;;4.55;;
67564;SDS011;54393;53.556;49.216;2022-08-16T07:55:45;5.32;;;4.15;;
67564;SDS011;54393;53.556;49.216;2022-08-16T07:58:12;6.57;;;4.60;;
67564;SDS011;54393;53.556;49.216;2022-08-16T08:00:38;7.55;;;4.57;;
67564;SDS011;54393;53.556;49.216;2022-08-16T08:03:05;5.65;;;4.62;;
67564;SDS011;54393;53.556;49.216;2022-08-16T08:05:31;7.18;;;4.20;;
67564;SDS011;54393;53.556;49.216;2022-08-16T08:07:58;7.28;;;3.80;;
67564;SDS011;54393;53.556;49.216;2022-08-16T08:10:24;6.47;;;4.53;;
67564;SDS011;54393;53.556;49.216;2022-08-16T08:12:51;6.18;;;4.53;;
67564;SDS011;54393;53.556;49.216;2022-08-16T08:15:19;5.20;;;4.43;;
67564;SDS011;54393;53.556;49.216;2022-08-16T08:17:46;8.43;;;4.50;;
67564;SDS011;54393;53.556;49.216;2022-08-16T08:20:16;5.07;;;4.12;;
67564;SDS011;54393;53.556;49.216;2022-08-16T08:22:50;4.35;;;3.90;;
67564;SDS011;54393;53.556;49.216;2022-08-16T08:25:18;5.28;;;4.03;;
67564;SDS011;54393;53.556;49.216;2022-08-16T08:27:45;5.97;;;4.10;;
67564;SDS011;54393;53.556;49.216;2022-08-16T08:30:12;8.43;;;3.97;;
67564;SDS011;54393;53.556;49.216;2022-08-16T08:32:39;4.72;;;4.15;;
67564;SDS011;54393;53.556;49.216;2022-08-16T08:35:06;4.40;;;4.00;;
67564;SDS011;54393;53.556;49.216;2022-08-16T08:37:34;4.53;;;4.12;;
67564;SDS011;54393;53.556;49.216;2022-08-16T08:40:02;4.72;;;4.12;;
67564;SDS011;54393;53.556;49.216;2022-08-16T08:42:29;5.18;;;3.90;;
67564;SDS011;54393;53.556;49.216;2022-08-16T08:44:56;6.00;;;3.80;;
67564;SDS011;54393;53.556;49.216;2022-08-16T08:47:22;4.45;;;4.05;;
67564;SDS011;54393;53.556;49.216;2022-08-16T08:49:49;4.43;;;3.80;;
67564;SDS011;54393;53.556;49.216;2022-08-16T08:52:15;7.12;;;3.95;;
67564;SDS011;54393;53.556;49.216;2022-08-16T08:54:42;4.22;;;3.83;;
67564;SDS011;54393;53.556;49.216;2022-08-16T08:57:09;4.30;;;3.90;;
67564;SDS011;54393;53.556;49.216;2022-08-16T08:59:37;4.10;;;3.70;;
67564;SDS011;54393;53.556;49.216;2022-08-16T09:02:04;3.87;;;3.58;;
67564;SDS011;54393;53.556;49.216;2022-08-16T09:04:33;4.95;;;3.70;;
67564;SDS011;54393;53.556;49.216;2022-08-16T09:06:59;4.30;;;3.58;;
67564;SDS011;54393;53.556;49.216;2022-08-16T09:09:25;4.28;;;3.28;;
67564;SDS011;54393;53.556;49.216;2022-08-16T09:11:53;3.70;;;3.40;;
67564;SDS011;54393;53.556;49.216;2022-08-16T09:14:20;4.55;;;3.50;;
67564;SDS011;54393;53.556;49.216;2022-08-16T09:16:47;5.20;;;3.20;;
67564;SDS011;54393;53.556;49.216;2022-08-16T09:19:15;3.83;;;3.45;;
67564;SDS011;54393;53.556;49.216;2022-08-16T09:21:42;3.90;;;3.50;;
67564;SDS011;54393;53.556;49.216;2022-08-16T09:24:08;3.78;;;3.30;;
67564;SDS011;54393;53.556;49.216;2022-08-16T09:26:35;3.05;;;2.85;;
67564;SDS011;54393;53.556;49.216;2022-08-16T09:29:05;5.03;;;3.53;;
67564;SDS011;54393;53.556;49.216;2022-08-16T09:31:31;3.45;;;3.10;;
67564;SDS011;54393;53.556;49.216;2022-08-16T09:33:58;3.47;;;3.17;;
67564;SDS011;54393;53.556;49.216;2022-08-16T09:36:27;3.72;;;3.22;;
67564;SDS011;54393;53.556;49.216;2022-08-16T09:38:54;3.85;;;3.45;;
67564;SDS011;54393;53.556;49.216;2022-08-16T09:41:22;3.55;;;3.25;;
67564;SDS011;54393;53.556;49.216;2022-08-16T09:43:48;3.08;;;2.87;;
67564;SDS011;54393;53.556;49.216;2022-08-16T09:46:15;3.83;;;3.42;;
67564;SDS011;54393;53.556;49.216;2022-08-16T09:48:41;5.07;;;2.80;;
67564;SDS011;54393;53.556;49.216;2022-08-16T09:51:08;3.78;;;3.20;;
67564;SDS011;54393;53.556;49.216;2022-08-16T09:53:36;4.80;;;2.87;;
67564;SDS011;54393;53.556;49.216;2022-08-16T09:56:03;2.90;;;2.70;;
67564;SDS011;54393;53.556;49.216;2022-08-16T09:58:37;3.15;;;2.85;;
67564;SDS011;54393;53.556;49.216;2022-08-16T10:01:04;4.28;;;2.60;;
67564;SDS011;54393;53.556;49.216;2022-08-16T10:03:30;3.65;;;2.90;;
67564;SDS011;54393;53.556;49.216;2022-08-16T10:05:57;3.37;;;3.08;;
67564;SDS011;54393;53.556;49.216;2022-08-16T10:08:23;3.17;;;2.78;;
67564;SDS011;54393;53.556;49.216;2022-08-16T10:10:50;3.10;;;2.90;;
67564;SDS011;54393;53.556;49.216;2022-08-16T10:13:35;3.20;;;2.45;;
67564;SDS011;54393;53.556;49.216;2022-08-16T10:16:03;3.45;;;2.78;;
67564;SDS011;54393;53.556;49.216;2022-08-16T10:18:30;3.20;;;2.90;;
67564;SDS011;54393;53.556;49.216;2022-08-16T10:20:58;3.05;;;2.85;;
67564;SDS011;54393;53.556;49.216;2022-08-16T10:23:25;3.22;;;2.92;;
67564;SDS011;54393;53.556;49.216;2022-08-16T10:25:53;2.62;;;2.42;;
67564;SDS011;54393;53.556;49.216;2022-08-16T10:28:20;3.75;;;2.10;;
67564;SDS011;54393;53.556;49.216;2022-08-16T10:30:47;2.70;;;2.50;;
67564;SDS011;54393;53.556;49.216;2022-08-16T10:33:13;2.40;;;2.17;;
67564;SDS011;54393;53.556;49.216;2022-08-16T10:35:41;2.90;;;2.60;;
67564;SDS011;54393;53.556;49.216;2022-08-16T10:38:09;2.62;;;2.42;;
67564;SDS011;54393;53.556;49.216;2022-08-16T10:40:37;2.58;;;2.37;;
67564;SDS011;54393;53.556;49.216;2022-08-16T10:43:04;2.78;;;2.58;;
67564;SDS011;54393;53.556;49.216;2022-08-16T10:45:31;3.12;;;2.60;;
67564;SDS011;54393;53.556;49.216;2022-08-16T10:47:58;2.92;;;2.60;;
67564;SDS011;54393;53.556;49.216;2022-08-16T10:50:25;2.45;;;2.28;;
67564;SDS011;54393;53.556;49.216;2022-08-16T10:52:52;3.00;;;2.70;;
67564;SDS011;54393;53.556;49.216;2022-08-16T10:55:19;2.53;;;2.33;;
67564;SDS011;54393;53.556;49.216;2022-08-16T10:57:46;3.22;;;2.55;;
67564;SDS011;54393;53.556;49.216;2022-08-16T11:00:14;3.25;;;2.75;;
67564;SDS011;54393;53.556;49.216;2022-08-16T11:02:41;2.87;;;2.35;;
67564;SDS011;54393;53.556;49.216;2022-08-16T11:05:10;2.95;;;2.42;;
67564;SDS011;54393;53.556;49.216;2022-08-16T11:07:39;3.42;;;2.83;;
67564;SDS011;54393;53.556;49.216;2022-08-16T11:10:08;3.75;;;2.70;;
67564;SDS011;54393;53.556;49.216;2022-08-16T11:12:35;2.42;;;2.22;;
67564;SDS011;54393;53.556;49.216;2022-08-16T11:15:02;2.55;;;2.35;;
67564;SDS011;54393;53.556;49.216;2022-08-16T11:17:29;2.47;;;2.28;;
67564;SDS011;54393;53.556;49.216;2022-08-16T11:19:56;2.40;;;2.20;;
67564;SDS011;54393;53.556;49.216;2022-08-16T11:22:23;2.50;;;2.30;;
67564;SDS011;54393;53.556;49.216;2022-08-16T11:24:50;2.42;;;2.22;;
67564;SDS011;54393;53.556;49.216;2022-08-16T11:27:18;2.67;;;2.42;;
67564;SDS011;54393;53.556;49.216;2022-08-16T11:29:50;3.87;;;2.87;;
67564;SDS011;54393;53.556;49.216;2022-08-16T11:32:18;2.95;;;2.30;;
67564;SDS011;54393;53.556;49.216;2022-08-16T11:34:45;4.55;;;2.80;;
67564;SDS011;54393;53.556;49.216;2022-08-16T11:37:12;2.30;;;2.10;;
67564;SDS011;54393;53.556;49.216;2022-08-16T11:39:38;3.72;;;2.50;;
67564;SDS011;54393;53.556;49.216;2022-08-16T11:42:05;3.85;;;2.40;;
67564;SDS011;54393;53.556;49.216;2022-08-16T11:44:31;2.55;;;2.35;;
67564;SDS011;54393;53.556;49.216;2022-08-16T11:46:58;2.33;;;2.12;;
67564;SDS011;54393;53.556;49.216;2022-08-16T11:49:25;2.70;;;2.50;;
67564;SDS011;54393;53.556;49.216;2022-08-16T11:51:51;3.03;;;2.78;;
67564;SDS011;54393;53.556;49.216;2022-08-16T11:54:17;3.53;;;2.30;;
67564;SDS011;54393;53.556;49.216;2022-08-16T11:56:45;2.50;;;2.30;;
67564;SDS011;54393;53.556;49.216;2022-08-16T11:59:11;2.20;;;2.10;;
67564;SDS011;54393;53.556;49.216;2022-08-16T12:01:38;2.35;;;2.03;;
67564;SDS011;54393;53.556;49.216;2022-08-16T12:04:05;3.03;;;2.65;;
67564;SDS011;54393;53.556;49.216;2022-08-16T12:06:32;2.45;;;2.20;;
67564;SDS011;54393;53.556;49.216;2022-08-16T12:08:58;5.35;;;2.25;;
67564;SDS011;54393;53.556;49.216;2022-08-16T12:11:25;2.75;;;2.50;;
67564;SDS011;54393;53.556;49.216;2022-08-16T12:13:52;2.30;;;2.00;;
67564;SDS011;54393;53.556;49.216;2022-08-16T12:16:19;2.45;;;2.30;;
67564;SDS011;54393;53.556;49.216;2022-08-16T12:18:47;1.98;;;1.80;;
67564;SDS011;54393;53.556;49.216;2022-08-16T12:21:14;2.40;;;2.20;;
67564;SDS011;54393;53.556;49.216;2022-08-16T12:23:41;2.28;;;2.17;;
67564;SDS011;54393;53.556;49.216;2022-08-16T12:26:07;4.60;;;2.42;;
67564;SDS011;54393;53.556;49.216;2022-08-16T12:28:34;2.70;;;2.25;;
67564;SDS011;54393;53.556;49.216;2022-08-16T12:31:00;5.25;;;2.30;;
67564;SDS011;54393;53.556;49.216;2022-08-16T12:33:27;3.15;;;2.40;;
67564;SDS011;54393;53.556;49.216;2022-08-16T12:35:53;4.72;;;2.62;;
67564;SDS011;54393;53.556;49.216;2022-08-16T12:38:20;2.75;;;2.40;;
67564;SDS011;54393;53.556;49.216;2022-08-16T12:40:47;3.28;;;1.92;;
67564;SDS011;54393;53.556;49.216;2022-08-16T12:43:15;2.45;;;2.10;;
67564;SDS011;54393;53.556;49.216;2022-08-16T12:45:46;2.62;;;2.42;;
67564;SDS011;54393;53.556;49.216;2022-08-16T12:48:15;2.35;;;2.25;;
67564;SDS011;54393;53.556;49.216;2022-08-16T12:51:05;2.42;;;2.22;;
67564;SDS011;54393;53.556;49.216;2022-08-16T12:53:35;2.22;;;2.00;;
67564;SDS011;54393;53.556;49.216;2022-08-16T12:56:03;4.40;;;2.42;;
67564;SDS011;54393;53.556;49.216;2022-08-16T12:58:30;2.55;;;2.33;;
67564;SDS011;54393;53.556;49.216;2022-08-16T13:00:57;3.47;;;2.28;;
67564;SDS011;54393;53.556;49.216;2022-08-16T13:03:24;2.58;;;2.28;;
67564;SDS011;54393;53.556;49.216;2022-08-16T13:05:52;4.87;;;2.30;;
67564;SDS011;54393;53.556;49.216;2022-08-16T13:08:19;4.80;;;2.70;;
67564;SDS011;54393;53.556;49.216;2022-08-16T13:10:47;4.12;;;2.40;;
67564;SDS011;54393;53.556;49.216;2022-08-16T13:13:17;2.90;;;2.20;;
67564;SDS011;54393;53.556;49.216;2022-08-16T13:15:50;2.97;;;2.70;;
67564;SDS011;54393;53.556;49.216;2022-08-16T13:18:17;4.60;;;2.55;;
67564;SDS011;54393;53.556;49.216;2022-08-16T13:20:44;2.55;;;2.33;;
67564;SDS011;54393;53.556;49.216;2022-08-16T13:23:11;4.55;;;2.62;;
67564;SDS011;54393;53.556;49.216;2022-08-16T13:25:39;3.15;;;2.55;;
67564;SDS011;54393;53.556;49.216;2022-08-16T13:28:08;6.95;;;2.53;;
67564;SDS011;54393;53.556;49.216;2022-08-16T13:30:36;4.93;;;2.92;;
67564;SDS011;54393;53.556;49.216;2022-08-16T13:33:09;4.85;;;2.70;;
67564;SDS011;54393;53.556;49.216;2022-08-16T13:35:36;2.62;;;2.17;;
67564;SDS011;54393;53.556;49.216;2022-08-16T13:38:03;4.22;;;2.58;;
67564;SDS011;54393;53.556;49.216;2022-08-16T13:40:31;2.60;;;2.40;;
67564;SDS011;54393;53.556;49.216;2022-08-16T13:42:58;2.60;;;2.40;;
67564;SDS011;54393;53.556;49.216;2022-08-16T13:45:25;3.03;;;2.72;;
67564;SDS011;54393;53.556;49.216;2022-08-16T13:47:52;3.28;;;2.60;;
67564;SDS011;54393;53.556;49.216;2022-08-16T13:50:18;6.37;;;2.97;;
67564;SDS011;54393;53.556;49.216;2022-08-16T13:52:45;4.03;;;2.78;;
67564;SDS011;54393;53.556;49.216;2022-08-16T13:55:12;5.03;;;2.90;;
67564;SDS011;54393;53.556;49.216;2022-08-16T13:57:38;3.22;;;2.87;;
67564;SDS011;54393;53.556;49.216;2022-08-16T14:00:06;4.07;;;2.92;;
67564;SDS011;54393;53.556;49.216;2022-08-16T14:02:34;3.75;;;3.05;;
67564;SDS011;54393;53.556;49.216;2022-08-16T14:05:01;2.85;;;2.47;;
67564;SDS011;54393;53.556;49.216;2022-08-16T14:07:28;2.60;;;2.40;;
67564;SDS011;54393;53.556;49.216;2022-08-16T14:09:55;2.95;;;2.62;;
67564;SDS011;54393;53.556;49.216;2022-08-16T14:12:23;3.17;;;2.50;;
67564;SDS011;54393;53.556;49.216;2022-08-16T14:14:51;2.80;;;2.53;;
67564;SDS011;54393;53.556;49.216;2022-08-16T14:17:19;2.62;;;2.37;;
67564;SDS011;54393;53.556;49.216;2022-08-16T14:19:46;2.85;;;2.55;;
67564;SDS011;54393;53.556;49.216;2022-08-16T14:22:17;2.72;;;2.33;;
67564;SDS011;54393;53.556;49.216;2022-08-16T14:24:49;2.83;;;2.60;;
67564;SDS011;54393;53.556;49.216;2022-08-16T14:27:17;2.83;;;2.58;;
67564;SDS011;54393;53.556;49.216;2022-08-16T14:29:45;3.90;;;2.47;;
67564;SDS011;54393;53.556;49.216;2022-08-16T14:32:12;2.62;;;2.42;;
67564;SDS011;54393;53.556;49.216;2022-08-16T14:34:39;2.55;;;2.35;;
67564;SDS011;54393;53.556;49.216;2022-08-16T14:37:05;3.55;;;2.47;;